Strona główna
METAR-TAF:

METAR-TAF

Lotnisko :

Ohio State University Airport

Columbus, Ohio, Stany Zjednoczone

Szerokość geograficzna: 40-04-41N, Długość geograficzna: 083-04-41W, wysokość: 275 m

Aktualna obserwacja pogody

Raport powstał 19 minut temu, godzina 13:53 UTC
Wiatr 7 kt od wschodnio-północny wschód
Temperatura 20°C
Wilgotność 64%
Ciśnienie 1024 hPa
Widzialność: 16.1 km
bezchmurnie

METAR: KOSU 241353Z 06007KT 10SM CLR 20/13 A3024 RMK AO2 SLP236 T02000128

czas: 10:12 (14:12 UTC)


TAF: brakujący

Obserwacja i prognoza pogody dla ponad 4000 lotnisk (raport METAR i TAF).

Dostępne stacje oznaczono żółtymi i czerwonymi punktami na mapie.

Najedź kursorem aby zobaczyć nazwę stacji.

Kliknij aby zobaczyć obserwacje i prognozy pogody.

Aby zmienić mapę: kliknij na zielony przycisk z czarnym krzyżykiem, aby powiększyć; na zielony przycisk z myślnikiem, aby pomniejszyć; na zielone strzałki, aby przejść do map sąsiednich.


METAR-TAF: